Latest Weather Observations for Green Cape

IDN60801

Issued at 6:05 pm EST Thursday 24 July 2014 (issued every 30 minutes, with the page automatically refreshed every 10 minutes)

About weather observations | Map of weather stations | Latest weather observations for NSW | Other Formats
Station Details ID: 069137 Name: GREEN CAPE AWS Lat: -37.26 Lon: 150.05 Height: 19.4 m
Data from the previous 72 hours. | See also: Recent months at Green Cape
Date/Time
EST
Temp
°C
App
Temp
°C
Dew
Point
Rel
Hum
%
Delta-T
°C
Wind Press
QNH
hPa
Press
MSL
hPa
Rain
since 9 am
mm
Dir
 
Spd
km/h
Gust
km/h
Spd
kts
Gust
kts
24/06:00pm 14.7 10.1 10.9 78 2.0 N 26 32 14 17 1017.8 1017.8 0.0
24/05:30pm 14.7 8.9 10.9 78 2.0 N 32 37 17 20 1017.4 - 0.0
24/05:00pm 14.8 9.6 11.6 81 1.7 N 30 37 16 20 1017.4 1017.4 0.0
24/04:30pm 15.0 8.9 11.6 80 1.8 N 35 39 19 21 1016.9 - 0.0
24/04:00pm 15.0 8.7 11.2 78 2.0 N 35 39 19 21 1016.5 1016.5 0.0
24/03:30pm 15.0 8.9 11.6 80 1.8 N 35 41 19 22 1016.5 - 0.0
24/03:00pm 15.1 8.9 11.5 79 1.9 N 35 41 19 22 1016.7 1016.7 0.0
24/02:30pm 15.0 8.4 11.2 78 2.0 N 37 43 20 23 1016.8 - 0.0
24/02:00pm 15.0 7.9 11.0 77 2.1 N 39 44 21 24 1017.1 1017.1 0.0
24/01:30pm 15.1 8.0 10.9 76 2.2 N 39 44 21 24 1017.3 - 0.0
24/01:00pm 15.1 8.3 10.5 74 2.4 N 37 46 20 25 1017.5 1017.5 0.0
24/12:30pm 14.7 10.0 10.7 77 2.1 N 26 33 14 18 1018.2 - 0.0
24/12:00pm 14.4 9.0 9.6 73 2.5 N 28 33 15 18 1018.8 1018.8 0.0
24/11:30am 14.9 9.7 10.3 74 2.4 N 28 33 15 18 1019.4 - 0.0
24/11:00am 13.5 8.4 9.2 75 2.2 N 26 32 14 17 1019.9 1019.9 0.0
24/10:30am 13.7 9.3 9.0 73 2.4 N 22 26 12 14 1020.1 - 0.0
24/10:00am 13.6 9.6 9.1 74 2.3 N 20 22 11 12 1020.4 1020.4 0.0
24/09:30am 13.6 10.7 9.5 76 2.1 N 15 19 8 10 1020.3 - 0.0
24/09:00am 13.2 10.7 9.8 80 1.7 N 13 17 7 9 1020.3 1020.3 0.0
24/08:30am 10.9 9.3 8.8 87 1.0 NNW 7 9 4 5 1020.3 - 0.0
24/08:00am 9.2 7.4 7.3 88 0.9 NW 6 7 3 4 1020.2 1020.2 0.0
24/07:30am 9.4 7.1 7.3 87 1.0 NW 9 13 5 7 1020.1 - 0.0
24/07:00am 10.4 7.6 8.5 88 0.9 N 13 17 7 9 1020.0 1020.0 0.0
24/06:30am 10.7 8.0 9.0 89 0.8 N 13 17 7 9 1019.9 - 0.0
24/06:00am 10.2 8.2 8.5 89 0.8 N 9 11 5 6 1019.8 1019.8 0.0
24/05:30am 9.6 8.0 7.9 89 0.8 NW 6 9 3 5 1019.8 - 0.0
24/05:00am 9.7 8.0 7.6 87 1.0 NW 6 7 3 4 1019.7 1019.7 0.0
24/04:30am 10.2 8.1 8.1 87 1.0 N 9 11 5 6 1019.8 - 0.0
24/04:00am 10.2 8.4 8.0 86 1.1 N 7 9 4 5 1019.7 1019.7 0.0
24/03:30am 10.2 8.4 8.0 86 1.1 N 7 9 4 5 1019.7 - 0.0
24/03:00am 10.2 8.4 8.0 86 1.1 N 7 9 4 5 1019.8 1019.8 0.0
24/02:30am 10.3 8.1 7.7 84 1.2 N 9 13 5 7 1020.0 - 0.0
24/02:00am 10.1 7.7 7.0 81 1.5 N 9 9 5 5 1020.1 1020.1 0.0
24/01:30am 10.3 7.9 6.8 79 1.6 N 9 9 5 5 1020.2 - 0.0
24/01:00am 10.3 7.8 6.5 77 1.8 N 9 9 5 5 1020.5 1020.5 0.0
24/12:30am 10.4 7.9 6.7 78 1.7 N 9 11 5 6 1020.6 - 0.0
24/12:00am 10.7 8.3 6.8 77 1.8 N 9 13 5 7 1021.1 1021.1 0.0
 
Date/Time
EST
Temp
°C
App
Temp
°C
Dew
Point
Rel
Hum
%
Delta-T
°C
Wind Press
QNH
hPa
Press
MSL
hPa
Rain
since 9 am
mm
Dir
 
Spd
km/h
Gust
km/h
Spd
kts
Gust
kts
23/11:30pm 10.6 7.7 6.6 76 1.9 N 11 13 6 7 1021.6 - 0.0
23/11:00pm 10.8 8.4 6.9 77 1.8 N 9 13 5 7 1021.7 1021.7 0.0
23/10:30pm 11.1 7.9 6.8 75 2.0 N 13 15 7 8 1022.0 - 0.0
23/10:00pm 11.1 7.9 6.8 75 2.0 NNW 13 15 7 8 1022.2 1022.2 0.0
23/09:30pm 11.2 8.9 7.3 77 1.9 NNW 9 11 5 6 1022.2 - 0.0
23/09:00pm 11.2 9.6 7.9 80 1.6 WNW 6 7 3 4 1022.3 1022.3 0.0
23/08:30pm 11.3 10.1 8.2 81 1.5 NW 4 6 2 3 1022.2 - 0.0
23/08:00pm 11.8 10.5 7.5 75 2.1 NW 4 7 2 4 1022.2 1022.2 0.0
23/07:30pm 12.8 11.2 7.9 72 2.4 N 6 7 3 4 1022.1 - 0.0
23/07:00pm 12.9 10.4 8.4 74 2.2 NNE 11 13 6 7 1022.0 1022.0 0.0
23/06:30pm 12.7 9.8 8.2 74 2.2 NNE 13 15 7 8 1021.9 - 0.0
23/06:00pm 12.8 10.3 8.1 73 2.3 NE 11 13 6 7 1021.7 1021.7 0.0
23/05:30pm 12.8 10.7 8.1 73 2.3 NNE 9 11 5 6 1021.6 - 0.0
23/05:00pm 13.1 10.9 8.0 71 2.5 NE 9 11 5 6 1021.4 1021.4 0.0
23/04:30pm 13.6 11.9 8.4 71 2.6 NNE 7 9 4 5 1021.6 - 0.0
23/04:00pm 14.3 12.5 8.0 66 3.1 NE 7 9 4 5 1021.5 1021.5 0.0
23/03:30pm 15.4 13.8 8.6 64 3.5 ENE 7 9 4 5 1021.4 - 0.0
23/03:00pm 15.9 14.3 8.9 63 3.6 NE 7 9 4 5 1021.4 1021.4 0.0
23/02:30pm 16.7 15.5 9.6 63 3.7 NE 6 7 3 4 1021.6 - 0.0
23/02:00pm 16.2 14.8 8.9 62 3.7 NE 6 7 3 4 1021.7 1021.7 0.0
23/01:30pm 15.8 14.8 8.8 63 3.6 E 4 6 2 3 1022.0 - 0.0
23/01:00pm 16.6 15.8 9.8 64 3.5 SE 4 6 2 3 1022.4 1022.4 0.0
23/12:30pm 15.5 14.5 9.0 65 3.3 SW 4 4 2 2 1022.9 - 0.0
23/12:00pm 14.3 13.1 8.0 66 3.1 WSW 4 7 2 4 1023.3 1023.3 0.0
23/11:30am 13.7 11.5 7.7 67 3.0 W 9 11 5 6 1023.7 - 0.0
23/11:00am 13.2 10.2 7.6 69 2.7 W 13 15 7 8 1024.2 1024.2 0.0
23/10:30am 12.4 8.5 6.9 69 2.6 W 17 20 9 11 1024.6 - 0.0
23/10:00am 11.6 7.0 6.3 70 2.5 W 20 22 11 12 1024.8 1024.8 0.0
23/09:30am 10.9 5.4 5.9 71 2.3 W 24 28 13 15 1024.8 - 0.0
23/09:00am 10.5 5.5 6.6 77 1.8 W 22 26 12 14 1024.7 1024.7 0.0
23/08:30am 9.9 5.6 7.2 83 1.3 W 19 22 10 12 1024.6 - 0.0
23/08:00am 9.2 4.8 6.5 83 1.2 W 19 20 10 11 1024.5 1024.5 0.0
23/07:30am 9.2 4.6 6.3 82 1.3 W 20 24 11 13 1024.4 - 0.0
23/07:00am 9.1 4.7 6.4 83 1.2 W 19 20 10 11 1024.2 1024.2 0.0
23/06:30am 9.0 4.5 6.1 82 1.3 W 19 20 10 11 1024.0 - 0.0
23/06:00am 9.1 4.3 5.8 80 1.5 W 20 24 11 13 1023.8 1023.8 0.0
23/05:30am 8.8 4.3 6.3 84 1.2 W 19 22 10 12 1023.5 - 0.0
23/05:00am 8.9 4.3 5.8 81 1.4 W 19 22 10 12 1023.2 1023.2 0.0
23/04:30am 9.1 4.3 5.8 80 1.5 W 20 24 11 13 1023.3 - 0.0
23/04:00am 9.3 4.6 6.0 80 1.5 W 20 24 11 13 1023.2 1023.2 0.0
23/03:30am 9.3 4.2 6.2 81 1.4 W 22 24 12 13 1023.2 - 0.0
23/03:00am 9.5 4.4 6.2 80 1.5 W 22 26 12 14 1023.5 1023.5 0.0
23/02:30am 9.4 3.9 6.1 80 1.5 W 24 26 13 14 1023.7 - 0.0
23/02:00am 9.3 3.8 6.0 80 1.5 W 24 30 13 16 1023.8 1023.8 0.0
23/01:30am 9.8 4.0 6.3 79 1.6 W 26 30 14 16 1023.8 - 0.0
23/01:00am 10.0 5.0 6.5 79 1.6 W 22 26 12 14 1023.9 1023.9 0.0
23/12:30am 10.1 5.4 6.1 76 1.9 W 20 26 11 14 1024.2 - 0.0
23/12:00am 10.1 5.6 6.3 77 1.8 W 19 22 10 12 1024.3 1024.3 0.0
 
Date/Time
EST
Temp
°C
App
Temp
°C
Dew
Point
Rel
Hum
%
Delta-T
°C
Wind Press
QNH
hPa
Press
MSL
hPa
Rain
since 9 am
mm
Dir
 
Spd
km/h
Gust
km/h
Spd
kts
Gust
kts
22/11:30pm 10.0 5.6 6.7 80 1.5 W 19 22 10 12 1024.5 - 0.0
22/11:00pm 10.0 6.1 6.9 81 1.5 W 17 22 9 12 1024.6 1024.6 0.0
22/10:30pm 10.5 6.1 7.6 82 1.4 W 20 24 11 13 1024.5 - 0.0
22/10:00pm 10.9 6.6 7.8 81 1.5 W 20 24 11 13 1024.5 1024.5 0.0
22/09:30pm 11.0 6.8 8.1 82 1.4 W 20 22 11 12 1024.5 - 0.0
22/09:00pm 11.6 7.0 8.3 80 1.6 WSW 22 28 12 15 1024.5 1024.5 0.0
22/08:30pm 11.6 7.4 8.1 79 1.7 WSW 20 24 11 13 1024.5 - 0.0
22/08:00pm 11.8 7.8 8.1 78 1.8 WSW 19 22 10 12 1024.6 1024.6 0.0
22/07:30pm 11.9 8.3 8.2 78 1.8 WSW 17 20 9 11 1024.6 - 0.0
22/07:00pm 12.4 8.4 8.3 76 2.0 WSW 19 22 10 12 1024.6 1024.6 0.0
22/06:30pm 12.4 8.9 8.9 79 1.8 SW 17 22 9 12 1024.5 - 0.0
22/06:00pm 12.5 8.5 9.1 80 1.7 SSW 20 24 11 13 1024.2 1024.2 0.0
22/05:30pm 12.8 7.8 9.4 80 1.7 S 26 28 14 15 1023.9 - 0.0
22/05:00pm 12.9 8.2 9.4 79 1.8 SSW 24 28 13 15 1023.7 1023.7 0.0
22/04:30pm 13.5 10.1 9.2 75 2.2 S 17 20 9 11 1023.6 - 0.0
22/04:00pm 13.6 10.2 9.1 74 2.3 S 17 20 9 11 1023.4 1023.4 0.0
22/03:30pm 14.3 10.7 9.7 74 2.4 S 19 22 10 12 1023.3 - 0.0
22/03:00pm 14.4 10.5 9.6 73 2.5 S 20 24 11 13 1023.1 1023.1 0.0
22/02:30pm 15.2 11.6 10.0 71 2.7 S 19 22 10 12 1023.1 - 0.0
22/02:00pm 16.0 13.2 9.9 67 3.2 S 15 19 8 10 1023.1 1023.1 0.0
22/01:30pm 14.1 10.8 8.1 67 3.0 S 15 17 8 9 1023.2 - 0.0
22/01:00pm 14.0 11.0 7.5 65 3.2 SSW 13 17 7 9 1023.4 1023.4 0.0
22/12:30pm 14.0 11.0 7.5 65 3.2 WSW 13 19 7 10 1023.8 - 0.0
22/12:00pm 13.7 9.9 7.7 67 2.9 WSW 17 20 9 11 1024.1 1024.1 0.0
22/11:30am 13.2 9.3 8.5 73 2.3 W 19 20 10 11 1024.8 - 0.0
22/11:00am 12.4 8.3 7.7 73 2.3 W 19 24 10 13 1025.2 1025.2 0.0
22/10:30am 11.7 6.9 7.2 74 2.2 W 22 24 12 13 1025.5 - 0.0
22/10:00am 11.1 6.2 6.8 75 2.0 W 22 26 12 14 1025.6 1025.6 0.0
22/09:30am 10.6 5.7 6.7 77 1.8 W 22 24 12 13 1025.6 - 0.0
22/09:00am 9.9 4.9 6.4 79 1.6 W 22 24 12 13 1025.5 1025.5 0.0
22/08:30am 9.6 4.2 6.5 81 1.4 W 24 26 13 14 1025.2 - 0.0
22/08:00am 9.3 4.0 6.6 83 1.2 W 24 26 13 14 1025.0 1025.0 0.0
22/07:30am 8.9 3.9 6.5 85 1.1 W 22 26 12 14 1024.7 - 0.0
22/07:00am 8.9 4.4 6.9 87 0.9 W 20 24 11 13 1024.4 1024.4 0.0
22/06:30am 8.8 3.5 6.9 88 0.9 W 24 26 13 14 1024.1 - 0.0
22/06:00am 9.0 4.1 7.1 88 0.9 W 22 26 12 14 1023.9 1023.9 0.0
22/05:30am 8.7 4.2 7.0 89 0.8 W 20 22 11 12 1023.7 - 0.0
22/05:00am 8.5 3.6 6.8 89 0.8 W 22 26 12 14 1023.6 1023.6 0.0
22/04:30am 8.9 4.5 7.2 89 0.8 W 20 24 11 13 1023.5 - 0.0
22/04:00am 8.9 4.6 7.2 89 0.8 W 19 22 10 12 1023.5 1023.5 0.0
22/03:30am 9.1 4.9 7.4 89 0.8 W 19 20 10 11 1023.6 - 0.0
22/03:00am 9.2 5.0 7.5 89 0.8 W 19 24 10 13 1023.7 1023.7 0.0
22/02:30am 9.4 5.6 7.7 89 0.8 W 17 20 9 11 1023.8 - 0.0
22/02:00am 9.4 6.0 7.7 89 0.8 W 15 19 8 10 1023.8 1023.8 0.0
22/01:30am 9.7 5.6 7.8 88 0.9 W 19 20 10 11 1023.9 - 0.0
22/01:00am 9.9 5.8 7.8 87 1.0 W 19 20 10 11 1024.0 1024.0 0.0
22/12:30am 10.0 5.9 7.9 87 1.0 W 19 20 10 11 1024.0 - 0.0
22/12:00am 9.9 6.2 7.8 87 1.0 W 17 20 9 11 1024.2 1024.2 0.0
 
Date/Time
EST
Temp
°C
App
Temp
°C
Dew
Point
Rel
Hum
%
Delta-T
°C
Wind Press
QNH
hPa
Press
MSL
hPa
Rain
since 9 am
mm
Dir
 
Spd
km/h
Gust
km/h
Spd
kts
Gust
kts
21/11:30pm 10.0 5.9 7.9 87 1.0 W 19 22 10 12 1024.5 - 0.0
21/11:00pm 10.1 6.4 7.9 86 1.1 W 17 20 9 11 1024.6 1024.6 0.0
21/10:30pm 10.2 6.1 7.8 85 1.2 W 19 22 10 12 1024.7 - 0.0
21/10:00pm 10.3 6.6 7.9 85 1.2 W 17 19 9 10 1024.8 1024.8 0.0
21/09:30pm 10.6 6.9 8.0 84 1.3 W 17 19 9 10 1024.9 - 0.0
21/09:00pm 10.7 7.4 8.1 84 1.3 W 15 17 8 9 1025.0 1025.0 0.0
21/08:30pm 10.8 7.5 8.2 84 1.3 W 15 17 8 9 1025.0 - 0.0
21/08:00pm 10.9 7.6 8.1 83 1.4 W 15 17 8 9 1025.0 1025.0 0.0
21/07:30pm 11.4 9.0 8.8 84 1.3 W 11 13 6 7 1025.0 - 0.0
21/07:00pm 11.7 9.4 8.9 83 1.4 W 11 15 6 8 1024.9 1024.9 0.0
21/06:30pm 12.7 10.0 8.8 77 2.0 SW 13 15 7 8 1024.8 - 0.0

Other Formats:

Comma delimited format used in spreadsheet applications
http://www.bom.gov.au/fwo/IDN60801/IDN60801.94934.axf

JavaScript Object Notation format (JSON) in row-major order
http://www.bom.gov.au/fwo/IDN60801/IDN60801.94934.json